Time;durP1;ratioP1;P1;durP2;ratioP2;P2;SDS_P1;SDS_P2;PMS_P1;PMS_P2;Temp;Humidity;BMP_temperature;BMP_pressure;BME280_temperature;BME280_humidity;BME280_pressure;Samples;Min_cycle;Max_cycle;Signal;HPM_P1;HPM_P2
2021/06/20 00:00:31;;;;;;;38.13;34.03;;;;;;;;;;1497339;39;20038;-60
2021/06/20 00:01:34;;;;;;;38.35;34.40;;;;;;;;;;1497155;39;20031;-60
2021/06/20 00:02:35;;;;;;;36.78;33.17;;;;;;;;;;1497256;39;20030;-60
2021/06/20 00:03:38;;;;;;;37.10;33.10;;;;;;;;;;1497363;39;20063;-60
2021/06/20 00:04:39;;;;;;;38.50;34.30;;;;;;;;;;1497363;39;20027;-60
2021/06/20 00:05:48;;;;;;;37.25;33.25;;;;;;;;;;1497246;39;20027;-60
2021/06/20 00:06:50;;;;;;;38.13;34.03;;;;;;;;;;1497375;39;20042;-60
2021/06/20 00:07:53;;;;;;;37.63;33.65;;;;;;;;;;1497113;39;20112;-60
2021/06/20 00:08:54;;;;;;;38.40;34.63;;;;;;;;;;1497098;39;20031;-60
2021/06/20 00:09:56;;;;;;;39.60;33.95;;;;;;;;;;1497216;39;20039;-60
2021/06/20 00:10:57;;;;;;;36.47;32.78;;;;;;;;;;1497238;39;20161;-60
2021/06/20 00:11:59;;;;;;;38.17;33.13;;;;;;;;;;1497156;39;20391;-60
2021/06/20 00:12:59;;;;;;;35.28;31.65;;;;;;;;;;1497157;39;20280;-60
2021/06/20 00:14:01;;;;;;;37.60;31.83;;;;;;;;;;1497384;39;20038;-60
2021/06/20 00:15:04;;;;;;;35.38;31.77;;;;;;;;;;1497137;39;20321;-60
2021/06/20 00:16:06;;;;;;;36.20;32.42;;;;;;;;;;1497121;39;20407;-60
2021/06/20 00:17:07;;;;;;;35.97;32.15;;;;;;;;;;1497158;39;20387;-60
2021/06/20 00:18:10;;;;;;;35.72;32.20;;;;;;;;;;1497118;39;20034;-60
2021/06/20 00:19:14;;;;;;;35.78;32.08;;;;;;;;;;1497452;39;20024;-60
2021/06/20 00:20:18;;;;;;;36.13;31.83;;;;;;;;;;1497257;39;20038;-60
2021/06/20 00:21:20;;;;;;;34.90;31.30;;;;;;;;;;1497328;39;20034;-60
2021/06/20 00:22:22;;;;;;;35.13;30.77;;;;;;;;;;1497141;39;20043;-60
2021/06/20 00:23:23;;;;;;;34.55;31.00;;;;;;;;;;1497107;39;20031;-59
2021/06/20 00:24:25;;;;;;;35.25;31.65;;;;;;;;;;1497106;39;20024;-60
2021/06/20 00:25:26;;;;;;;36.67;32.47;;;;;;;;;;1497258;39;20024;-60
2021/06/20 00:26:28;;;;;;;34.78;31.17;;;;;;;;;;1497318;39;20031;-60
2021/06/20 00:27:29;;;;;;;35.25;31.52;;;;;;;;;;1497297;39;20031;-60
2021/06/20 00:28:38;;;;;;;34.90;31.23;;;;;;;;;;1497290;39;20035;-60
2021/06/20 00:29:41;;;;;;;34.72;30.75;;;;;;;;;;1497263;39;20036;-60
2021/06/20 00:30:43;;;;;;;36.53;30.40;;;;;;;;;;1497411;39;20068;-60
2021/06/20 00:31:44;;;;;;;32.13;28.80;;;;;;;;;;1497359;39;20023;-60
2021/06/20 00:32:46;;;;;;;33.80;29.98;;;;;;;;;;1497154;39;20332;-60
2021/06/20 00:33:47;;;;;;;33.83;30.30;;;;;;;;;;1497128;39;20038;-60
2021/06/20 00:34:51;;;;;;;33.80;29.88;;;;;;;;;;1497188;39;20023;-60
2021/06/20 00:35:52;;;;;;;33.58;29.65;;;;;;;;;;1497085;39;20398;-60
2021/06/20 00:36:54;;;;;;;35.15;29.48;;;;;;;;;;1497199;39;20031;-60
2021/06/20 00:37:55;;;;;;;32.50;29.10;;;;;;;;;;1497265;39;20031;-60
2021/06/20 00:38:57;;;;;;;29.92;26.92;;;;;;;;;;1497074;39;20035;-60
2021/06/20 00:39:57;;;;;;;31.38;28.23;;;;;;;;;;1497096;39;20058;-60
2021/06/20 00:40:59;;;;;;;30.05;27.15;;;;;;;;;;1497181;39;20032;-60
2021/06/20 00:42:00;;;;;;;30.95;27.80;;;;;;;;;;1497165;39;20395;-60
2021/06/20 00:43:02;;;;;;;30.25;27.30;;;;;;;;;;1497275;39;20027;-60
2021/06/20 00:44:03;;;;;;;31.58;28.20;;;;;;;;;;1497162;39;20034;-60
2021/06/20 00:45:08;;;;;;;29.33;26.42;;;;;;;;;;1497213;39;20287;-60
2021/06/20 00:46:09;;;;;;;30.17;27.00;;;;;;;;;;1497103;39;20024;-60
2021/06/20 00:47:11;;;;;;;29.52;26.52;;;;;;;;;;1497280;39;20028;-61
2021/06/20 00:48:12;;;;;;;30.92;27.73;;;;;;;;;;1497236;39;20054;-60
2021/06/20 00:49:14;;;;;;;30.70;27.52;;;;;;;;;;1497067;39;20108;-60
2021/06/20 00:50:17;;;;;;;29.77;26.70;;;;;;;;;;1497377;39;20027;-60
2021/06/20 00:51:19;;;;;;;29.45;26.17;;;;;;;;;;1497305;39;20145;-60
2021/06/20 00:52:20;;;;;;;29.40;26.40;;;;;;;;;;1497115;39;20383;-60
2021/06/20 00:53:22;;;;;;;28.95;25.92;;;;;;;;;;1497105;39;20483;-60
2021/06/20 00:54:22;;;;;;;29.83;26.75;;;;;;;;;;1497106;39;20043;-60
2021/06/20 00:55:27;;;;;;;29.15;25.80;;;;;;;;;;1497075;39;20024;-60
2021/06/20 00:56:28;;;;;;;28.55;25.55;;;;;;;;;;1497093;39;20034;-60
2021/06/20 00:57:30;;;;;;;30.05;26.90;;;;;;;;;;1497271;39;20027;-60
2021/06/20 00:58:31;;;;;;;29.83;26.58;;;;;;;;;;1497239;39;20031;-60
2021/06/20 00:59:33;;;;;;;28.40;25.48;;;;;;;;;;1497264;39;20365;-60
2021/06/20 01:00:36;;;;;;;27.48;24.65;;;;;;;;;;1497207;39;20034;-60
2021/06/20 01:01:36;;;;;;;28.70;25.02;;;;;;;;;;1497248;39;20028;-60
2021/06/20 01:02:39;;;;;;;27.02;24.33;;;;;;;;;;1497162;39;20294;-60
2021/06/20 01:03:39;;;;;;;28.48;25.02;;;;;;;;;;1497286;39;20027;-60
2021/06/20 01:04:41;;;;;;;27.45;24.55;;;;;;;;;;1497070;39;20027;-60
2021/06/20 01:05:44;;;;;;;27.92;24.83;;;;;;;;;;1496733;39;20062;-60
2021/06/20 01:06:46;;;;;;;28.75;25.45;;;;;;;;;;1496680;39;20418;-60
2021/06/20 01:07:50;;;;;;;28.83;24.98;;;;;;;;;;1496599;39;20032;-60
2021/06/20 01:08:52;;;;;;;30.25;24.30;;;;;;;;;;1497176;39;20047;-60
2021/06/20 01:09:53;;;;;;;31.00;24.25;;;;;;;;;;1497291;39;20028;-60
2021/06/20 01:10:55;;;;;;;31.80;24.55;;;;;;;;;;1497247;39;20034;-60
2021/06/20 01:11:56;;;;;;;27.80;24.73;;;;;;;;;;1497189;39;20027;-60
2021/06/20 01:12:58;;;;;;;26.83;24.02;;;;;;;;;;1497269;39;20107;-60
2021/06/20 01:13:59;;;;;;;25.60;23.00;;;;;;;;;;1497185;39;20129;-60
2021/06/20 01:15:01;;;;;;;26.27;23.13;;;;;;;;;;1497259;39;20035;-60
2021/06/20 01:16:02;;;;;;;26.48;23.67;;;;;;;;;;1497055;39;20023;-60
2021/06/20 01:17:05;;;;;;;31.58;24.02;;;;;;;;;;1497255;39;20027;-60
2021/06/20 01:18:07;;;;;;;30.52;23.63;;;;;;;;;;1496938;39;20034;-60
2021/06/20 01:19:08;;;;;;;30.45;23.75;;;;;;;;;;1497232;39;20024;-60
2021/06/20 01:20:13;;;;;;;30.20;23.08;;;;;;;;;;1497164;39;20402;-59
2021/06/20 01:21:16;;;;;;;28.13;24.13;;;;;;;;;;1497102;39;20027;-59
2021/06/20 01:22:22;;;;;;;27.00;24.10;;;;;;;;;;1497213;39;20038;-60
2021/06/20 01:23:23;;;;;;;26.05;23.25;;;;;;;;;;1497026;39;20054;-60
2021/06/20 01:24:25;;;;;;;26.42;23.63;;;;;;;;;;1497008;39;20383;-60
2021/06/20 01:25:28;;;;;;;25.80;22.40;;;;;;;;;;1496997;39;20028;-60
2021/06/20 01:26:32;;;;;;;27.08;22.88;;;;;;;;;;1497138;39;20027;-60
2021/06/20 01:27:38;;;;;;;25.02;21.95;;;;;;;;;;1496979;39;20295;-60
2021/06/20 01:28:49;;;;;;;24.85;22.45;;;;;;;;;;1497031;39;20035;-60
2021/06/20 01:29:50;;;;;;;35.33;23.45;;;;;;;;;;1497221;39;20031;-60
2021/06/20 01:30:57;;;;;;;26.58;21.88;;;;;;;;;;1497004;39;20114;-60
2021/06/20 01:31:58;;;;;;;23.90;21.33;;;;;;;;;;1497222;39;20042;-60
2021/06/20 01:33:02;;;;;;;24.52;21.58;;;;;;;;;;1497160;39;20043;-60
2021/06/20 01:34:06;;;;;;;25.83;21.98;;;;;;;;;;1497130;39;20033;-60
2021/06/20 01:35:10;;;;;;;25.70;23.00;;;;;;;;;;1497153;39;20031;-60
2021/06/20 01:36:12;;;;;;;25.30;21.98;;;;;;;;;;1496991;39;20307;-60
2021/06/20 01:37:15;;;;;;;25.23;22.63;;;;;;;;;;1496954;39;20302;-60
2021/06/20 01:38:17;;;;;;;25.02;21.63;;;;;;;;;;1497102;39;20023;-60
2021/06/20 01:39:19;;;;;;;24.15;21.70;;;;;;;;;;1496931;39;20039;-60
2021/06/20 01:40:21;;;;;;;23.58;21.30;;;;;;;;;;1497396;39;20038;-58
2021/06/20 01:41:23;;;;;;;25.40;21.90;;;;;;;;;;1497152;39;20031;-58
2021/06/20 01:42:24;;;;;;;25.65;22.70;;;;;;;;;;1497152;39;20023;-58
2021/06/20 01:43:26;;;;;;;23.98;21.52;;;;;;;;;;1496984;39;20307;-58
2021/06/20 01:44:27;;;;;;;24.00;21.63;;;;;;;;;;1497109;39;20038;-58
2021/06/20 01:45:30;;;;;;;23.08;20.77;;;;;;;;;;1496908;39;20306;-58
2021/06/20 01:46:31;;;;;;;23.65;21.27;;;;;;;;;;1497016;39;20031;-58
2021/06/20 01:47:33;;;;;;;26.17;22.42;;;;;;;;;;1497137;39;20375;-58
2021/06/20 01:48:36;;;;;;;23.77;20.95;;;;;;;;;;1496912;39;20031;-58
2021/06/20 01:49:38;;;;;;;24.13;21.48;;;;;;;;;;1497003;39;20053;-58
2021/06/20 01:50:39;;;;;;;24.48;21.92;;;;;;;;;;1496929;39;20023;-58
2021/06/20 01:51:42;;;;;;;29.63;22.77;;;;;;;;;;1497072;39;20027;-58
2021/06/20 01:52:44;;;;;;;28.23;21.70;;;;;;;;;;1496926;39;20379;-58
2021/06/20 01:53:46;;;;;;;24.83;22.17;;;;;;;;;;1497119;39;20027;-57
2021/06/20 01:54:53;;;;;;;25.52;22.00;;;;;;;;;;1496917;39;20387;-58
2021/06/20 01:55:56;;;;;;;23.73;21.33;;;;;;;;;;1496939;39;20031;-58
2021/06/20 01:56:56;;;;;;;24.65;22.10;;;;;;;;;;1497112;39;20032;-57
2021/06/20 01:57:58;;;;;;;23.67;21.23;;;;;;;;;;1496979;39;20063;-58
2021/06/20 01:58:59;;;;;;;23.67;21.20;;;;;;;;;;1497040;39;20038;-58
2021/06/20 02:00:04;;;;;;;23.63;20.98;;;;;;;;;;1496981;39;20034;-58
2021/06/20 02:01:05;;;;;;;23.23;20.67;;;;;;;;;;1497106;39;20027;-58
2021/06/20 02:02:07;;;;;;;23.60;21.10;;;;;;;;;;1496847;39;20032;-58
2021/06/20 02:03:08;;;;;;;25.40;22.65;;;;;;;;;;1496927;39;20027;-58
2021/06/20 02:04:10;;;;;;;25.30;22.77;;;;;;;;;;1496892;39;20405;-58
2021/06/20 02:05:12;;;;;;;23.90;21.45;;;;;;;;;;1496854;39;20318;-58
2021/06/20 02:06:14;;;;;;;23.98;21.58;;;;;;;;;;1497074;39;20031;-58
2021/06/20 02:07:14;;;;;;;24.13;21.25;;;;;;;;;;1496895;39;20298;-58
2021/06/20 02:08:19;;;;;;;24.23;21.73;;;;;;;;;;1496888;39;20028;-58
2021/06/20 02:09:21;;;;;;;23.55;21.33;;;;;;;;;;1496859;39;20028;-58
2021/06/20 02:10:23;;;;;;;23.75;21.25;;;;;;;;;;1496869;39;20406;-58
2021/06/20 02:11:23;;;;;;;24.52;21.92;;;;;;;;;;1496841;39;20294;-58
2021/06/20 02:12:26;;;;;;;25.58;22.92;;;;;;;;;;1497059;39;20032;-58
2021/06/20 02:13:29;;;;;;;24.33;21.95;;;;;;;;;;1496896;39;20023;-58
2021/06/20 02:14:30;;;;;;;24.23;21.73;;;;;;;;;;1496838;39;20402;-58
2021/06/20 02:15:33;;;;;;;24.42;21.83;;;;;;;;;;1496834;39;20112;-58
2021/06/20 02:16:38;;;;;;;24.75;22.20;;;;;;;;;;1496826;39;20050;-59
2021/06/20 02:17:40;;;;;;;24.45;21.75;;;;;;;;;;1496979;39;20028;-57
2021/06/20 02:18:41;;;;;;;24.20;21.63;;;;;;;;;;1497640;39;20028;-58
2021/06/20 02:19:43;;;;;;;24.25;21.75;;;;;;;;;;1497771;39;20287;-58
2021/06/20 02:20:44;;;;;;;23.50;20.92;;;;;;;;;;1497379;39;20027;-58
2021/06/20 02:21:45;;;;;;;23.35;20.88;;;;;;;;;;1497651;39;20038;-58
2021/06/20 02:22:50;;;;;;;24.10;21.60;;;;;;;;;;1497606;39;20028;-58
2021/06/20 02:23:51;;;;;;;23.70;21.08;;;;;;;;;;1497651;39;20131;-58
2021/06/20 02:24:55;;;;;;;24.05;21.55;;;;;;;;;;1497694;39;20110;-58
2021/06/20 02:25:57;;;;;;;24.70;22.10;;;;;;;;;;1497543;39;20287;-58
2021/06/20 02:26:57;;;;;;;24.33;21.67;;;;;;;;;;1497493;39;20053;-58
2021/06/20 02:27:59;;;;;;;24.08;21.48;;;;;;;;;;1497539;39;20038;-58
2021/06/20 02:29:00;;;;;;;25.63;22.13;;;;;;;;;;1497459;39;20039;-58
2021/06/20 02:30:02;;;;;;;23.00;20.73;;;;;;;;;;1497543;39;20023;-58
2021/06/20 02:31:03;;;;;;;25.40;21.45;;;;;;;;;;1497620;39;20027;-58
2021/06/20 02:32:06;;;;;;;23.02;20.60;;;;;;;;;;1497701;39;20299;-58
2021/06/20 02:33:06;;;;;;;23.70;21.33;;;;;;;;;;1497612;39;20031;-58
2021/06/20 02:34:08;;;;;;;25.50;21.88;;;;;;;;;;1497430;39;20027;-58
2021/06/20 02:35:12;;;;;;;23.45;21.15;;;;;;;;;;1497588;39;20043;-58
2021/06/20 02:36:14;;;;;;;25.65;22.13;;;;;;;;;;1497613;39;20023;-58
2021/06/20 02:37:16;;;;;;;22.77;20.45;;;;;;;;;;1497636;39;20023;-58
2021/06/20 02:38:18;;;;;;;25.42;21.50;;;;;;;;;;1497682;39;20039;-58
2021/06/20 02:39:19;;;;;;;23.58;21.08;;;;;;;;;;1497705;39;20033;-58
2021/06/20 02:40:22;;;;;;;24.60;21.15;;;;;;;;;;1497578;39;20028;-58
2021/06/20 02:41:23;;;;;;;23.25;20.85;;;;;;;;;;1497704;39;20031;-58
2021/06/20 02:42:25;;;;;;;24.02;21.25;;;;;;;;;;1497627;39;20031;-58
2021/06/20 02:43:26;;;;;;;23.08;20.77;;;;;;;;;;1497387;39;20020;-58
2021/06/20 02:44:28;;;;;;;24.23;21.77;;;;;;;;;;1497615;39;20403;-58
2021/06/20 02:45:29;;;;;;;24.38;21.73;;;;;;;;;;1497641;39;20028;-58
2021/06/20 02:46:31;;;;;;;23.52;21.20;;;;;;;;;;1497464;39;20302;-58
2021/06/20 02:47:31;;;;;;;25.73;22.17;;;;;;;;;;1497604;39;20032;-58
2021/06/20 02:48:33;;;;;;;23.13;20.85;;;;;;;;;;1497403;39;20027;-58
2021/06/20 02:49:36;;;;;;;23.23;20.90;;;;;;;;;;1497545;39;20028;-58
2021/06/20 02:50:37;;;;;;;24.35;22.05;;;;;;;;;;1497646;39;20043;-58
2021/06/20 02:51:41;;;;;;;24.50;21.90;;;;;;;;;;1497469;39;20027;-58
2021/06/20 02:52:43;;;;;;;24.98;22.40;;;;;;;;;;1497578;39;20031;-58
2021/06/20 02:53:44;;;;;;;24.83;22.35;;;;;;;;;;1497582;39;20028;-57
2021/06/20 02:54:52;;;;;;;25.48;22.73;;;;;;;;;;1497557;39;20063;-57
2021/06/20 02:55:54;;;;;;;25.88;22.38;;;;;;;;;;1497661;39;20032;-58
2021/06/20 02:56:57;;;;;;;24.45;21.70;;;;;;;;;;1497593;39;20039;-58
2021/06/20 02:57:57;;;;;;;23.52;21.20;;;;;;;;;;1497430;39;20084;-57
2021/06/20 02:58:59;;;;;;;24.35;21.85;;;;;;;;;;1497614;39;20035;-57
2021/06/20 03:00:02;;;;;;;24.50;22.02;;;;;;;;;;1497604;39;20035;-58
2021/06/20 03:01:04;;;;;;;25.25;22.63;;;;;;;;;;1497330;39;20382;-57
2021/06/20 03:02:05;;;;;;;27.08;24.30;;;;;;;;;;1497501;39;20042;-58
2021/06/20 03:03:06;;;;;;;25.55;22.80;;;;;;;;;;1497401;39;20383;-58
2021/06/20 03:04:08;;;;;;;27.30;23.40;;;;;;;;;;1497330;39;20387;-58
2021/06/20 03:05:11;;;;;;;27.10;24.27;;;;;;;;;;1497336;39;20387;-57
2021/06/20 03:06:12;;;;;;;25.85;23.05;;;;;;;;;;1497459;39;20026;-58
2021/06/20 03:07:14;;;;;;;25.40;22.80;;;;;;;;;;1497355;39;20061;-58
2021/06/20 03:08:15;;;;;;;24.95;22.08;;;;;;;;;;1497419;39;20019;-57
2021/06/20 03:09:17;;;;;;;25.33;22.83;;;;;;;;;;1497341;39;20034;-58
2021/06/20 03:10:18;;;;;;;24.33;21.92;;;;;;;;;;1497367;39;20290;-58
2021/06/20 03:11:21;;;;;;;24.50;22.08;;;;;;;;;;1497376;39;20038;-58
2021/06/20 03:12:23;;;;;;;24.15;21.85;;;;;;;;;;1497362;39;20298;-57
2021/06/20 03:13:23;;;;;;;23.85;21.42;;;;;;;;;;1497302;39;20031;-57
2021/06/20 03:14:25;;;;;;;25.98;23.27;;;;;;;;;;1497317;39;20027;-58
2021/06/20 03:15:26;;;;;;;24.38;21.77;;;;;;;;;;1497556;39;20028;-57
2021/06/20 03:16:28;;;;;;;23.50;21.00;;;;;;;;;;1496827;39;20102;-58
2021/06/20 03:17:29;;;;;;;23.65;21.25;;;;;;;;;;1496839;39;20027;-58
2021/06/20 03:18:31;;;;;;;25.58;22.98;;;;;;;;;;1497501;39;20370;-58
2021/06/20 03:19:32;;;;;;;24.60;22.10;;;;;;;;;;1497336;39;20087;-58
2021/06/20 03:20:34;;;;;;;24.25;21.77;;;;;;;;;;1497312;39;20387;-57
2021/06/20 03:21:35;;;;;;;23.80;21.45;;;;;;;;;;1497348;39;20394;-57
2021/06/20 03:22:37;;;;;;;24.55;22.05;;;;;;;;;;1497510;39;20034;-58
2021/06/20 03:23:38;;;;;;;24.13;21.67;;;;;;;;;;1497305;39;20299;-57
2021/06/20 03:24:43;;;;;;;23.73;21.27;;;;;;;;;;1497330;39;20038;-58
2021/06/20 03:25:44;;;;;;;25.02;22.48;;;;;;;;;;1497297;39;20390;-58
2021/06/20 03:26:47;;;;;;;24.52;22.13;;;;;;;;;;1497322;39;20118;-58
2021/06/20 03:27:48;;;;;;;24.02;21.65;;;;;;;;;;1497283;39;20039;-58
2021/06/20 03:28:50;;;;;;;23.42;21.02;;;;;;;;;;1497145;39;20031;-58
2021/06/20 03:29:50;;;;;;;25.00;22.30;;;;;;;;;;1497497;39;20028;-58
2021/06/20 03:30:52;;;;;;;25.45;22.58;;;;;;;;;;1497545;39;20028;-57
2021/06/20 03:31:54;;;;;;;24.73;22.20;;;;;;;;;;1497452;39;20028;-56
2021/06/20 03:32:55;;;;;;;25.48;22.95;;;;;;;;;;1497532;39;20111;-58
2021/06/20 03:33:58;;;;;;;25.17;22.70;;;;;;;;;;1497322;39;20024;-58
2021/06/20 03:35:00;;;;;;;23.80;21.27;;;;;;;;;;1497457;39;20047;-58
2021/06/20 03:36:02;;;;;;;24.83;22.23;;;;;;;;;;1497361;39;20240;-57
2021/06/20 03:37:06;;;;;;;23.88;21.27;;;;;;;;;;1497385;39;20028;-58
2021/06/20 03:38:06;;;;;;;24.48;22.08;;;;;;;;;;1497381;39;20038;-60
2021/06/20 03:39:08;;;;;;;24.17;21.40;;;;;;;;;;1497310;39;20058;-58
2021/06/20 03:40:10;;;;;;;25.25;21.48;;;;;;;;;;1497290;39;20031;-57
2021/06/20 03:41:12;;;;;;;24.80;22.00;;;;;;;;;;1497426;39;20035;-58
2021/06/20 03:42:16;;;;;;;27.00;23.77;;;;;;;;;;1497335;39;20024;-58
2021/06/20 03:43:17;;;;;;;25.38;22.85;;;;;;;;;;1497449;39;20077;-58
2021/06/20 03:44:18;;;;;;;23.80;21.38;;;;;;;;;;1497266;39;20122;-57
2021/06/20 03:45:20;;;;;;;24.33;21.92;;;;;;;;;;1497452;39;20031;-58
2021/06/20 03:46:21;;;;;;;25.27;22.67;;;;;;;;;;1497482;39;20030;-58
2021/06/20 03:47:23;;;;;;;24.58;22.15;;;;;;;;;;1497262;39;20046;-57
2021/06/20 03:48:24;;;;;;;24.88;22.40;;;;;;;;;;1497240;39;20028;-57
2021/06/20 03:49:26;;;;;;;25.65;23.02;;;;;;;;;;1497444;39;20055;-58
2021/06/20 03:50:27;;;;;;;24.40;22.00;;;;;;;;;;1497449;39;20027;-58
2021/06/20 03:51:29;;;;;;;24.75;22.25;;;;;;;;;;1497453;39;20032;-57
2021/06/20 03:52:30;;;;;;;24.85;22.48;;;;;;;;;;1497442;39;20039;-58
2021/06/20 03:53:32;;;;;;;25.70;22.98;;;;;;;;;;1497198;39;20050;-58
2021/06/20 03:54:32;;;;;;;25.13;22.63;;;;;;;;;;1497248;39;20031;-58
2021/06/20 03:55:34;;;;;;;24.63;22.23;;;;;;;;;;1497235;39;20032;-58
2021/06/20 03:56:35;;;;;;;25.08;22.60;;;;;;;;;;1497215;39;20039;-58
2021/06/20 03:57:39;;;;;;;25.90;22.35;;;;;;;;;;1497406;39;20023;-58
2021/06/20 03:58:40;;;;;;;28.02;23.55;;;;;;;;;;1497232;39;20031;-57
2021/06/20 03:59:41;;;;;;;24.88;22.25;;;;;;;;;;1497420;39;20035;-58
2021/06/20 04:00:42;;;;;;;24.95;21.90;;;;;;;;;;1497413;39;20038;-57
2021/06/20 04:01:44;;;;;;;24.98;22.27;;;;;;;;;;1497394;39;20031;-58
2021/06/20 04:02:46;;;;;;;24.23;21.60;;;;;;;;;;1497209;39;20330;-58
2021/06/20 04:03:47;;;;;;;25.63;22.88;;;;;;;;;;1497242;39;20391;-58
2021/06/20 04:04:48;;;;;;;25.48;22.83;;;;;;;;;;1497435;39;20059;-57
2021/06/20 04:05:50;;;;;;;24.83;22.23;;;;;;;;;;1497185;39;20078;-58
2021/06/20 04:06:51;;;;;;;24.98;22.38;;;;;;;;;;1497423;39;20027;-58
2021/06/20 04:07:53;;;;;;;23.92;21.52;;;;;;;;;;1497237;39;20299;-58
2021/06/20 04:08:53;;;;;;;24.60;22.15;;;;;;;;;;1497163;39;20035;-58
2021/06/20 04:09:55;;;;;;;24.20;20.77;;;;;;;;;;1497447;39;20030;-58
2021/06/20 04:10:56;;;;;;;24.25;21.27;;;;;;;;;;1497185;39;20405;-57
2021/06/20 04:11:58;;;;;;;25.20;20.75;;;;;;;;;;1497184;39;20119;-58
2021/06/20 04:13:00;;;;;;;26.98;21.75;;;;;;;;;;1497300;39;20023;-58
2021/06/20 04:14:02;;;;;;;24.42;21.70;;;;;;;;;;1497368;39;20024;-57
2021/06/20 04:15:04;;;;;;;23.63;21.30;;;;;;;;;;1497282;39;20031;-58
2021/06/20 04:16:06;;;;;;;23.73;21.42;;;;;;;;;;1497457;39;20039;-58
2021/06/20 04:17:07;;;;;;;24.30;21.85;;;;;;;;;;1497280;39;20380;-58
2021/06/20 04:18:09;;;;;;;24.55;22.08;;;;;;;;;;1497336;39;20027;-59
2021/06/20 04:19:11;;;;;;;23.98;21.58;;;;;;;;;;1497380;39;20104;-58
2021/06/20 04:20:14;;;;;;;23.45;21.15;;;;;;;;;;1497474;39;20072;-58
2021/06/20 04:21:16;;;;;;;23.48;20.95;;;;;;;;;;1497153;39;20035;-58
2021/06/20 04:22:17;;;;;;;24.50;22.08;;;;;;;;;;1497214;39;20031;-58
2021/06/20 04:23:18;;;;;;;23.13;20.83;;;;;;;;;;1497344;39;20027;-58
2021/06/20 04:24:20;;;;;;;23.33;20.90;;;;;;;;;;1497131;39;20031;-58
2021/06/20 04:25:21;;;;;;;23.52;21.23;;;;;;;;;;1497349;39;20027;-58
2021/06/20 04:26:23;;;;;;;23.55;21.10;;;;;;;;;;1497263;39;20387;-58
2021/06/20 04:27:24;;;;;;;23.45;20.90;;;;;;;;;;1497130;39;20024;-58
2021/06/20 04:28:27;;;;;;;24.15;21.48;;;;;;;;;;1497314;39;20028;-58
2021/06/20 04:29:28;;;;;;;23.23;20.83;;;;;;;;;;1497150;39;20039;-58
2021/06/20 04:30:30;;;;;;;23.15;20.73;;;;;;;;;;1497239;39;20030;-58
2021/06/20 04:31:30;;;;;;;22.33;20.13;;;;;;;;;;1497179;39;20031;-57
2021/06/20 04:32:32;;;;;;;23.33;21.00;;;;;;;;;;1497377;39;20027;-57
2021/06/20 04:33:33;;;;;;;22.60;20.33;;;;;;;;;;1497236;39;20406;-58
2021/06/20 04:34:35;;;;;;;22.95;20.67;;;;;;;;;;1497257;39;20040;-58
2021/06/20 04:35:36;;;;;;;23.15;20.73;;;;;;;;;;1497210;39;20305;-58
2021/06/20 04:36:38;;;;;;;23.60;20.52;;;;;;;;;;1497145;39;20042;-58
2021/06/20 04:37:39;;;;;;;22.95;20.25;;;;;;;;;;1497166;39;20078;-58
2021/06/20 04:38:41;;;;;;;26.15;20.65;;;;;;;;;;1497060;39;20067;-58
2021/06/20 04:39:42;;;;;;;23.25;20.77;;;;;;;;;;1497358;39;20034;-58
2021/06/20 04:40:44;;;;;;;21.67;19.55;;;;;;;;;;1496578;39;20298;-58
2021/06/20 04:41:45;;;;;;;22.33;20.13;;;;;;;;;;1497081;39;20063;-58
2021/06/20 04:42:54;;;;;;;22.98;20.67;;;;;;;;;;1497209;39;20112;-57
2021/06/20 04:43:59;;;;;;;21.90;19.58;;;;;;;;;;1497201;39;20038;-58
2021/06/20 04:45:02;;;;;;;23.13;20.65;;;;;;;;;;1497161;39;20027;-58
2021/06/20 04:46:06;;;;;;;22.50;20.25;;;;;;;;;;1497128;39;20367;-58
2021/06/20 04:47:08;;;;;;;21.98;19.67;;;;;;;;;;1497125;39;20387;-58
2021/06/20 04:48:09;;;;;;;23.27;20.80;;;;;;;;;;1497207;39;20023;-58
2021/06/20 04:49:11;;;;;;;22.00;19.80;;;;;;;;;;1497177;39;20290;-58
2021/06/20 04:50:13;;;;;;;22.45;20.17;;;;;;;;;;1497102;39;20049;-58
2021/06/20 04:51:15;;;;;;;22.17;20.08;;;;;;;;;;1497296;39;20035;-58
2021/06/20 04:52:15;;;;;;;22.85;20.45;;;;;;;;;;1497313;39;20031;-58
2021/06/20 04:53:17;;;;;;;23.33;20.40;;;;;;;;;;1497164;39;20376;-57
2021/06/20 04:54:18;;;;;;;22.73;20.45;;;;;;;;;;1497083;39;20030;-58
2021/06/20 04:55:20;;;;;;;22.50;20.40;;;;;;;;;;1497348;39;20027;-58
2021/06/20 04:56:21;;;;;;;22.88;20.63;;;;;;;;;;1497077;39;20023;-58
2021/06/20 04:57:24;;;;;;;22.55;20.20;;;;;;;;;;1497271;39;20099;-58
2021/06/20 04:58:25;;;;;;;21.92;19.83;;;;;;;;;;1497187;39;20028;-58
2021/06/20 04:59:28;;;;;;;22.67;20.27;;;;;;;;;;1497084;39;20284;-58
2021/06/20 05:00:28;;;;;;;23.52;20.85;;;;;;;;;;1497232;39;20035;-58
2021/06/20 05:01:30;;;;;;;22.42;20.10;;;;;;;;;;1497003;39;20290;-58
2021/06/20 05:02:31;;;;;;;22.45;20.10;;;;;;;;;;1497236;39;20028;-58
2021/06/20 05:03:33;;;;;;;21.77;19.52;;;;;;;;;;1497272;39;20043;-58
2021/06/20 05:04:35;;;;;;;22.00;19.73;;;;;;;;;;1497289;39;20035;-58
2021/06/20 05:05:36;;;;;;;21.98;19.77;;;;;;;;;;1497272;39;20062;-58
2021/06/20 05:06:37;;;;;;;21.27;19.02;;;;;;;;;;1497046;39;20027;-59
2021/06/20 05:07:39;;;;;;;21.20;19.05;;;;;;;;;;1497244;39;20084;-58
2021/06/20 05:08:41;;;;;;;21.02;18.77;;;;;;;;;;1497206;39;20034;-58
2021/06/20 05:09:43;;;;;;;20.98;18.85;;;;;;;;;;1497234;39;20291;-58
2021/06/20 05:10:44;;;;;;;21.13;18.92;;;;;;;;;;1497243;39;20034;-58
2021/06/20 05:11:46;;;;;;;21.15;18.65;;;;;;;;;;1496997;39;20367;-58
2021/06/20 05:12:46;;;;;;;20.65;18.65;;;;;;;;;;1497004;39;20032;-58
2021/06/20 05:13:48;;;;;;;21.17;18.80;;;;;;;;;;1497299;39;20092;-58
2021/06/20 05:14:51;;;;;;;20.48;18.35;;;;;;;;;;1497008;39;20387;-58
2021/06/20 05:15:52;;;;;;;19.90;17.70;;;;;;;;;;1497211;39;20067;-57
2021/06/20 05:16:53;;;;;;;19.63;17.52;;;;;;;;;;1497015;39;20386;-58
2021/06/20 05:17:56;;;;;;;20.13;18.02;;;;;;;;;;1497003;39;20027;-58
2021/06/20 05:18:57;;;;;;;19.67;17.60;;;;;;;;;;1497087;39;20057;-58
2021/06/20 05:19:58;;;;;;;20.35;18.10;;;;;;;;;;1496965;39;20027;-58
2021/06/20 05:20:59;;;;;;;20.50;18.40;;;;;;;;;;1497181;39;20049;-58
2021/06/20 05:22:01;;;;;;;20.98;18.05;;;;;;;;;;1496933;39;20031;-58
2021/06/20 05:23:02;;;;;;;20.15;18.02;;;;;;;;;;1497042;39;20028;-58
2021/06/20 05:24:05;;;;;;;19.27;17.35;;;;;;;;;;1496982;39;20031;-58
2021/06/20 05:25:06;;;;;;;19.50;17.50;;;;;;;;;;1497167;39;20031;-59
2021/06/20 05:26:08;;;;;;;20.45;18.25;;;;;;;;;;1497270;39;20111;-59
2021/06/20 05:27:10;;;;;;;20.83;18.73;;;;;;;;;;1496994;39;20038;-58
2021/06/20 05:28:12;;;;;;;20.65;18.20;;;;;;;;;;1496949;39;20038;-57
2021/06/20 05:29:13;;;;;;;21.52;18.70;;;;;;;;;;1497013;39;20028;-57
2021/06/20 05:30:17;;;;;;;21.92;18.20;;;;;;;;;;1497133;39;20127;-58
2021/06/20 05:31:19;;;;;;;21.65;18.83;;;;;;;;;;1497190;39;20027;-58
2021/06/20 05:32:21;;;;;;;21.63;18.83;;;;;;;;;;1496936;39;20027;-58
2021/06/20 05:33:22;;;;;;;21.08;18.98;;;;;;;;;;1497003;39;20126;-59
2021/06/20 05:34:23;;;;;;;23.77;19.25;;;;;;;;;;1497154;39;20028;-58
2021/06/20 05:35:26;;;;;;;19.40;17.60;;;;;;;;;;1497181;39;20043;-58
2021/06/20 05:36:26;;;;;;;20.60;18.50;;;;;;;;;;1496946;39;20023;-59
2021/06/20 05:37:28;;;;;;;19.92;17.83;;;;;;;;;;1496982;39;20039;-59
2021/06/20 05:38:29;;;;;;;20.27;18.20;;;;;;;;;;1496897;39;20031;-58
2021/06/20 05:39:31;;;;;;;21.20;19.00;;;;;;;;;;1497005;39;20031;-58
2021/06/20 05:40:32;;;;;;;20.17;18.25;;;;;;;;;;1496943;39;20035;-58
2021/06/20 05:41:34;;;;;;;21.60;19.02;;;;;;;;;;1496928;39;20388;-58
2021/06/20 05:42:35;;;;;;;20.17;17.90;;;;;;;;;;1496972;39;20031;-58
2021/06/20 05:43:37;;;;;;;21.40;18.80;;;;;;;;;;1497120;39;20032;-59
2021/06/20 05:44:38;;;;;;;20.58;18.42;;;;;;;;;;1497100;39;20023;-59
2021/06/20 05:45:41;;;;;;;21.25;18.90;;;;;;;;;;1497006;39;20050;-58
2021/06/20 05:46:42;;;;;;;22.75;19.17;;;;;;;;;;1496958;39;20303;-58
2021/06/20 05:47:44;;;;;;;20.83;18.02;;;;;;;;;;1496879;39;20027;-59
2021/06/20 05:48:45;;;;;;;20.58;18.40;;;;;;;;;;1497109;39;20038;-59
2021/06/20 05:49:47;;;;;;;21.48;18.40;;;;;;;;;;1497069;39;20031;-58
2021/06/20 05:50:48;;;;;;;24.48;19.27;;;;;;;;;;1496950;39;20284;-58
2021/06/20 05:51:50;;;;;;;23.15;19.23;;;;;;;;;;1497225;39;20040;-58
2021/06/20 05:52:52;;;;;;;21.52;19.23;;;;;;;;;;1497759;39;20023;-59
2021/06/20 05:53:54;;;;;;;21.50;19.33;;;;;;;;;;1497961;39;20027;-58
2021/06/20 05:54:55;;;;;;;21.50;19.00;;;;;;;;;;1497746;39;20019;-59
2021/06/20 05:55:56;;;;;;;20.45;18.40;;;;;;;;;;1497737;39;20020;-59
2021/06/20 05:56:57;;;;;;;21.25;18.98;;;;;;;;;;1497648;39;20401;-58
2021/06/20 05:57:59;;;;;;;20.35;18.25;;;;;;;;;;1497734;39;20042;-58
2021/06/20 05:59:00;;;;;;;23.63;19.30;;;;;;;;;;1497688;39;20074;-59
2021/06/20 06:00:02;;;;;;;22.67;18.33;;;;;;;;;;1497537;39;20391;-59